createdAt,value
2023-03-29T00:00:41.984Z,8.23
2023-03-29T00:01:42.071Z,8.38
2023-03-29T00:02:42.091Z,8.33
2023-03-29T00:03:42.020Z,8.19
2023-03-29T00:04:42.030Z,8.31
2023-03-29T00:05:41.928Z,8.27
2023-03-29T00:06:41.944Z,8.25
2023-03-29T00:07:41.941Z,8.05
2023-03-29T00:08:41.995Z,8.28
2023-03-29T00:09:41.924Z,8.27
2023-03-29T00:10:42.791Z,8.30
2023-03-29T00:11:42.409Z,8.28
2023-03-29T00:12:41.971Z,8.34
2023-03-29T00:13:41.921Z,8.24
2023-03-29T00:14:41.914Z,8.24
2023-03-29T00:15:41.906Z,8.25
2023-03-29T00:16:41.926Z,8.27
2023-03-29T00:17:41.938Z,8.07
2023-03-29T00:18:41.950Z,8.13
2023-03-29T00:19:41.881Z,8.23
2023-03-29T00:20:41.826Z,8.14
2023-03-29T00:21:41.867Z,8.07
2023-03-29T00:22:41.780Z,8.07
2023-03-29T00:23:41.754Z,8.07
2023-03-29T00:24:41.735Z,8.01
2023-03-29T00:25:42.304Z,7.95
2023-03-29T00:26:41.650Z,7.89
2023-03-29T00:27:41.600Z,7.82
2023-03-29T00:28:41.552Z,7.81
2023-03-29T00:29:41.534Z,7.72
2023-03-29T00:30:41.510Z,7.76
2023-03-29T00:31:41.571Z,7.70
2023-03-29T00:32:41.520Z,7.60
2023-03-29T00:33:41.477Z,7.57
2023-03-29T00:34:41.396Z,7.67
2023-03-29T00:35:41.420Z,7.63
2023-03-29T00:36:41.347Z,7.68
2023-03-29T00:37:41.403Z,7.64
2023-03-29T00:38:41.297Z,7.58
2023-03-29T00:39:41.253Z,7.53
2023-03-29T00:40:41.220Z,7.54
2023-03-29T00:41:41.811Z,7.57
2023-03-29T00:42:41.152Z,7.55
2023-03-29T00:43:41.093Z,7.52
2023-03-29T00:44:41.069Z,7.57
2023-03-29T00:45:41.041Z,7.55
2023-03-29T00:46:41.061Z,7.51
2023-03-29T00:47:41.098Z,7.44
2023-03-29T00:48:40.952Z,7.39
2023-03-29T00:49:40.912Z,7.43
2023-03-29T00:50:40.893Z,7.43
2023-03-29T00:51:40.856Z,7.40
2023-03-29T00:52:40.829Z,7.43
2023-03-29T00:53:40.809Z,7.34
2023-03-29T00:54:40.792Z,7.33
2023-03-29T00:55:40.763Z,7.36
2023-03-29T00:56:40.809Z,7.34
2023-03-29T00:57:40.709Z,7.29
2023-03-29T00:58:40.674Z,7.36
2023-03-29T00:59:40.651Z,7.31
2023-03-29T01:00:40.617Z,7.29
2023-03-29T01:01:40.612Z,7.28
2023-03-29T01:02:40.658Z,7.35
2023-03-29T01:03:40.562Z,7.17
2023-03-29T01:04:40.483Z,7.17
2023-03-29T01:05:40.495Z,7.12
2023-03-29T01:06:40.472Z,7.17
2023-03-29T01:07:40.455Z,7.07
2023-03-29T01:08:40.465Z,7.02
2023-03-29T01:09:40.439Z,7.08
2023-03-29T01:10:40.446Z,7.00
2023-03-29T01:11:40.438Z,6.99
2023-03-29T01:12:40.412Z,7.01
2023-03-29T01:13:40.388Z,6.98
2023-03-29T01:14:40.358Z,6.86
2023-03-29T01:15:40.337Z,6.98
2023-03-29T01:16:40.338Z,6.90
2023-03-29T01:17:40.302Z,6.83
2023-03-29T01:18:40.216Z,6.86
2023-03-29T01:19:40.164Z,6.82
2023-03-29T01:20:40.121Z,6.73
2023-03-29T01:21:40.085Z,6.73
2023-03-29T01:22:40.032Z,6.76
2023-03-29T01:23:40.011Z,6.61
2023-03-29T01:24:39.962Z,6.68
2023-03-29T01:25:39.932Z,6.68
2023-03-29T01:26:39.891Z,6.61
2023-03-29T01:27:40.342Z,6.53
2023-03-29T01:28:39.821Z,6.65
2023-03-29T01:29:39.858Z,6.67
2023-03-29T01:30:39.747Z,6.67
2023-03-29T01:31:39.757Z,6.71
2023-03-29T01:32:39.703Z,6.68
2023-03-29T01:33:39.655Z,6.70
2023-03-29T01:34:39.605Z,6.69
2023-03-29T01:35:39.594Z,6.69
2023-03-29T01:36:39.589Z,6.64
2023-03-29T01:37:39.502Z,6.66
2023-03-29T01:38:39.489Z,6.71
2023-03-29T01:39:39.441Z,6.70
2023-03-29T01:40:39.396Z,6.62
2023-03-29T01:41:39.349Z,6.65
2023-03-29T01:42:39.324Z,6.66
2023-03-29T01:43:39.283Z,6.66
2023-03-29T01:44:39.223Z,6.67
2023-03-29T01:45:39.281Z,6.61
2023-03-29T01:46:39.406Z,6.65
2023-03-29T01:47:39.876Z,6.65
2023-03-29T01:48:39.133Z,6.62
2023-03-29T01:49:39.140Z,6.61
2023-03-29T01:50:39.173Z,6.64
2023-03-29T01:51:39.188Z,6.64
2023-03-29T01:52:39.129Z,6.58
2023-03-29T01:53:39.082Z,6.57
2023-03-29T01:54:39.088Z,6.62
2023-03-29T01:55:39.074Z,6.59
2023-03-29T01:56:39.109Z,6.58
2023-03-29T01:57:39.073Z,6.66
2023-03-29T01:58:39.064Z,6.60
2023-03-29T01:59:39.108Z,6.60
2023-03-29T02:00:39.048Z,6.63
2023-03-29T02:01:39.105Z,6.70
2023-03-29T02:02:39.088Z,6.61
2023-03-29T02:03:39.072Z,6.61
2023-03-29T02:04:39.037Z,6.60
2023-03-29T02:05:39.137Z,6.65
2023-03-29T02:06:39.113Z,6.68
2023-03-29T02:07:39.016Z,6.68
2023-03-29T02:08:39.014Z,6.64
2023-03-29T02:09:39.007Z,6.65
2023-03-29T02:10:39.011Z,6.64
2023-03-29T02:11:39.005Z,6.65
2023-03-29T02:12:39.012Z,6.59
2023-03-29T02:13:38.997Z,6.62
2023-03-29T02:14:38.986Z,6.61
2023-03-29T02:15:39.019Z,6.62
2023-03-29T02:16:38.980Z,6.65
2023-03-29T02:17:39.064Z,6.64
2023-03-29T02:18:38.973Z,6.54
2023-03-29T02:19:38.969Z,6.51
2023-03-29T02:20:39.160Z,6.54
2023-03-29T02:21:38.950Z,6.62
2023-03-29T02:22:38.939Z,6.56
2023-03-29T02:23:38.945Z,6.55
2023-03-29T02:24:38.928Z,6.52
2023-03-29T02:25:38.907Z,6.51
2023-03-29T02:26:38.875Z,6.47
2023-03-29T02:27:38.903Z,6.41
2023-03-29T02:28:38.867Z,6.36
2023-03-29T02:29:38.864Z,6.44
2023-03-29T02:30:38.827Z,6.43
2023-03-29T02:31:38.901Z,6.42
2023-03-29T02:32:38.839Z,6.38
2023-03-29T02:33:38.798Z,6.38
2023-03-29T02:34:38.876Z,6.30
2023-03-29T02:35:38.814Z,6.33
2023-03-29T02:36:39.923Z,6.35
2023-03-29T02:37:38.736Z,6.35
2023-03-29T02:38:38.735Z,6.27
2023-03-29T02:39:38.788Z,6.26
2023-03-29T02:40:38.722Z,6.22
2023-03-29T02:41:38.714Z,6.21
2023-03-29T02:42:38.697Z,6.16
2023-03-29T02:43:38.682Z,6.19
2023-03-29T02:44:38.682Z,6.18
2023-03-29T02:45:38.659Z,6.21
2023-03-29T02:46:38.706Z,6.24
2023-03-29T02:47:38.701Z,6.29
2023-03-29T02:48:38.864Z,6.22
2023-03-29T02:49:38.637Z,6.26
2023-03-29T02:50:38.684Z,6.23
2023-03-29T02:51:38.619Z,6.13
2023-03-29T02:52:38.612Z,6.10
2023-03-29T02:53:38.601Z,6.18
2023-03-29T02:54:38.586Z,6.20
2023-03-29T02:55:38.583Z,6.16
2023-03-29T02:56:38.601Z,6.12
2023-03-29T02:57:38.578Z,6.13
2023-03-29T02:58:38.571Z,6.09
2023-03-29T02:59:38.582Z,6.14
2023-03-29T03:00:38.551Z,6.10
2023-03-29T03:01:38.587Z,6.14
2023-03-29T03:02:38.775Z,6.18
2023-03-29T03:03:38.627Z,6.05
2023-03-29T03:04:38.512Z,6.08
2023-03-29T03:05:38.521Z,6.07
2023-03-29T03:06:38.518Z,6.12
2023-03-29T03:07:38.479Z,6.13
2023-03-29T03:08:38.464Z,6.11
2023-03-29T03:09:38.465Z,6.12
2023-03-29T03:10:38.447Z,6.13
2023-03-29T03:11:38.435Z,6.12
2023-03-29T03:12:38.413Z,6.17
2023-03-29T03:13:38.389Z,6.16
2023-03-29T03:14:38.370Z,6.09
2023-03-29T03:15:38.364Z,6.07
2023-03-29T03:16:38.399Z,5.92
2023-03-29T03:17:38.375Z,5.87
2023-03-29T03:18:38.344Z,5.87
2023-03-29T03:19:38.327Z,6.00
2023-03-29T03:20:38.315Z,5.89
2023-03-29T03:21:38.316Z,5.94
2023-03-29T03:22:38.377Z,5.93
2023-03-29T03:23:38.296Z,5.95
2023-03-29T03:24:38.868Z,5.69
2023-03-29T03:25:38.282Z,5.74
2023-03-29T03:26:38.314Z,5.89
2023-03-29T03:27:38.351Z,5.85
2023-03-29T03:28:38.350Z,5.79
2023-03-29T03:29:38.425Z,5.77
2023-03-29T03:30:38.401Z,5.91
2023-03-29T03:31:38.446Z,5.85
2023-03-29T03:32:38.527Z,5.68
2023-03-29T03:33:38.461Z,5.86
2023-03-29T03:34:38.490Z,5.73
2023-03-29T03:35:38.516Z,5.74
2023-03-29T03:36:38.538Z,5.67
2023-03-29T03:37:38.556Z,5.90
2023-03-29T03:38:38.645Z,5.86
2023-03-29T03:39:38.559Z,5.85
2023-03-29T03:40:38.575Z,5.65
2023-03-29T03:41:38.609Z,5.64
2023-03-29T03:42:38.583Z,5.78
2023-03-29T03:43:38.561Z,5.74
2023-03-29T03:44:38.543Z,5.64
2023-03-29T03:45:38.624Z,5.85
2023-03-29T03:46:38.585Z,5.66
2023-03-29T03:47:38.641Z,5.64
2023-03-29T03:48:38.753Z,5.92
2023-03-29T03:49:38.650Z,5.71
2023-03-29T03:50:38.666Z,5.79
2023-03-29T03:51:38.692Z,5.69
2023-03-29T03:52:38.701Z,5.64
2023-03-29T03:53:38.729Z,5.66
2023-03-29T03:54:38.739Z,5.67
2023-03-29T03:55:38.751Z,5.67
2023-03-29T03:56:39.417Z,5.62
2023-03-29T03:57:38.781Z,5.61
2023-03-29T03:58:38.798Z,5.58
2023-03-29T03:59:38.819Z,5.58
2023-03-29T04:00:38.845Z,5.70
2023-03-29T04:01:38.873Z,5.59
2023-03-29T04:02:38.945Z,5.66
2023-03-29T04:03:38.969Z,5.62
2023-03-29T04:04:38.949Z,5.55
2023-03-29T04:05:38.963Z,5.60
2023-03-29T04:06:40.182Z,5.63
2023-03-29T04:07:39.006Z,5.45
2023-03-29T04:08:39.013Z,5.57
2023-03-29T04:09:39.007Z,5.45
2023-03-29T04:10:38.995Z,5.49
2023-03-29T04:11:39.062Z,5.53
2023-03-29T04:12:38.978Z,5.44
2023-03-29T04:13:38.963Z,5.45
2023-03-29T04:14:38.928Z,5.43
2023-03-29T04:15:38.938Z,5.49
2023-03-29T04:16:38.877Z,5.43
2023-03-29T04:17:39.008Z,5.34
2023-03-29T04:18:38.887Z,5.40
2023-03-29T04:19:38.834Z,5.35
2023-03-29T04:20:38.805Z,5.38
2023-03-29T04:21:38.775Z,5.30
2023-03-29T04:22:38.768Z,5.29
2023-03-29T04:23:38.738Z,5.37
2023-03-29T04:24:38.727Z,5.33
2023-03-29T04:25:38.707Z,5.42
2023-03-29T04:26:38.729Z,5.37
2023-03-29T04:27:38.702Z,5.25
2023-03-29T04:28:38.695Z,5.30
2023-03-29T04:29:38.711Z,5.29
2023-03-29T04:30:38.760Z,5.20
2023-03-29T04:31:38.815Z,5.38
2023-03-29T04:32:38.829Z,5.26
2023-03-29T04:33:38.761Z,5.15
2023-03-29T04:34:38.791Z,5.19
2023-03-29T04:35:38.838Z,5.21
2023-03-29T04:36:38.799Z,5.15
2023-03-29T04:37:38.788Z,5.17
2023-03-29T04:38:38.811Z,5.23
2023-03-29T04:39:38.813Z,5.14
2023-03-29T04:40:38.820Z,5.24
2023-03-29T04:41:38.813Z,5.24
2023-03-29T04:42:38.819Z,5.19
2023-03-29T04:43:40.260Z,5.17
2023-03-29T04:44:38.802Z,5.04
2023-03-29T04:45:38.784Z,5.08
2023-03-29T04:46:38.802Z,5.10
2023-03-29T04:47:38.799Z,5.03
2023-03-29T04:48:38.741Z,5.09
2023-03-29T04:49:38.742Z,5.07
2023-03-29T04:50:38.730Z,4.98
2023-03-29T04:51:38.721Z,5.02
2023-03-29T04:52:38.687Z,5.06
2023-03-29T04:53:38.679Z,5.06
2023-03-29T04:54:38.644Z,5.06
2023-03-29T04:55:38.615Z,5.08
2023-03-29T04:56:38.606Z,5.08
2023-03-29T04:57:38.545Z,4.96
2023-03-29T04:58:38.521Z,4.98
2023-03-29T04:59:38.520Z,4.93
2023-03-29T05:00:38.553Z,4.77
2023-03-29T05:01:38.630Z,4.98
2023-03-29T05:02:38.666Z,4.89
2023-03-29T05:03:38.654Z,4.94
2023-03-29T05:04:38.710Z,4.87
2023-03-29T05:05:38.722Z,4.82
2023-03-29T05:06:38.734Z,4.95
2023-03-29T05:07:38.751Z,4.81
2023-03-29T05:08:38.789Z,4.81
2023-03-29T05:09:38.829Z,4.94
2023-03-29T05:10:38.858Z,4.84
2023-03-29T05:11:38.896Z,4.87
2023-03-29T05:12:38.936Z,4.89
2023-03-29T05:13:38.971Z,4.81
2023-03-29T05:14:38.999Z,4.83
2023-03-29T05:15:40.795Z,4.82
2023-03-29T05:16:39.129Z,4.78
2023-03-29T05:17:39.154Z,4.68
2023-03-29T05:18:39.121Z,4.82
2023-03-29T05:19:39.154Z,4.73
2023-03-29T05:20:39.180Z,4.83
2023-03-29T05:21:39.213Z,4.78
2023-03-29T05:22:39.232Z,4.74
2023-03-29T05:23:39.267Z,4.63
2023-03-29T05:24:39.419Z,4.70
2023-03-29T05:25:39.314Z,4.90
2023-03-29T05:26:39.366Z,4.93
2023-03-29T05:27:39.393Z,5.23
2023-03-29T05:28:39.469Z,5.27
2023-03-29T05:29:39.466Z,5.14
2023-03-29T05:30:39.500Z,4.28
2023-03-29T05:31:39.584Z,2.52
2023-03-29T05:32:40.470Z,2.07
2023-03-29T05:33:39.489Z,1.53
2023-03-29T05:34:39.500Z,1.34
2023-03-29T05:35:39.472Z,1.46
2023-03-29T05:36:39.412Z,1.88
2023-03-29T05:37:39.385Z,2.24
2023-03-29T05:38:39.386Z,2.70
2023-03-29T05:39:39.366Z,3.37
2023-03-29T05:40:39.369Z,4.00
2023-03-29T05:41:39.400Z,4.42
2023-03-29T05:42:39.409Z,5.34
2023-03-29T05:43:39.430Z,6.00
2023-03-29T05:44:39.423Z,6.85
2023-03-29T05:45:39.468Z,7.53
2023-03-29T05:46:39.484Z,8.37
2023-03-29T05:47:39.411Z,9.65
2023-03-29T05:48:39.372Z,10.78
2023-03-29T05:49:39.349Z,11.98
2023-03-29T05:50:39.318Z,13.14
2023-03-29T05:51:39.289Z,14.43
2023-03-29T05:52:39.249Z,15.47
2023-03-29T05:53:39.205Z,17.39
2023-03-29T05:54:39.159Z,16.52
2023-03-29T05:55:39.443Z,12.28
2023-03-29T05:56:39.150Z,8.67
2023-03-29T05:57:39.120Z,6.31
2023-03-29T05:58:39.158Z,6.36
2023-03-29T05:59:39.075Z,7.48
2023-03-29T06:00:39.065Z,8.06
2023-03-29T06:01:39.055Z,9.02
2023-03-29T06:02:39.107Z,9.35
2023-03-29T06:03:39.171Z,10.37
2023-03-29T06:04:39.208Z,11.10
2023-03-29T06:05:38.972Z,12.03
2023-03-29T06:06:38.939Z,12.65
2023-03-29T06:07:38.903Z,14.13
2023-03-29T06:08:38.838Z,16.43
2023-03-29T06:09:38.804Z,17.90
2023-03-29T06:10:38.759Z,18.95
2023-03-29T06:11:38.704Z,19.99
2023-03-29T06:12:38.645Z,21.68
2023-03-29T06:13:38.597Z,23.59
2023-03-29T06:14:38.569Z,25.38
2023-03-29T06:15:38.558Z,26.52
2023-03-29T06:16:40.192Z,28.95
2023-03-29T06:17:38.540Z,31.24
2023-03-29T06:18:38.432Z,32.78
2023-03-29T06:19:38.374Z,35.04
2023-03-29T06:20:38.308Z,37.57
2023-03-29T06:21:38.248Z,41.52
2023-03-29T06:22:38.185Z,35.59
2023-03-29T06:23:38.113Z,32.22
2023-03-29T06:24:38.050Z,30.44
2023-03-29T06:25:37.990Z,16.35
2023-03-29T06:26:37.933Z,10.52
2023-03-29T06:27:37.879Z,10.38
2023-03-29T06:28:37.831Z,11.27
2023-03-29T06:29:37.775Z,12.51
2023-03-29T06:30:37.716Z,12.29
2023-03-29T06:31:37.683Z,12.86
2023-03-29T06:32:37.655Z,14.72
2023-03-29T06:33:37.519Z,14.69
2023-03-29T06:34:38.572Z,14.93
2023-03-29T06:35:38.054Z,15.62
2023-03-29T06:36:39.372Z,15.67
2023-03-29T06:37:38.875Z,15.83
2023-03-29T06:38:37.427Z,16.57
2023-03-29T06:39:37.948Z,18.07
2023-03-29T06:40:38.872Z,19.81
2023-03-29T06:41:37.357Z,20.39
2023-03-29T06:42:37.457Z,21.06
2023-03-29T06:43:37.256Z,21.21
2023-03-29T06:44:37.195Z,21.86
2023-03-29T06:45:37.144Z,23.10
2023-03-29T06:46:37.150Z,23.63
2023-03-29T06:47:37.106Z,23.34
2023-03-29T06:48:37.958Z,23.94
2023-03-29T06:49:36.935Z,21.49
2023-03-29T06:50:36.903Z,22.46
2023-03-29T06:51:36.861Z,23.10
2023-03-29T06:52:36.852Z,22.94
2023-03-29T06:53:36.801Z,23.09
2023-03-29T06:54:36.732Z,23.10
2023-03-29T06:55:36.684Z,22.19
2023-03-29T06:56:36.959Z,21.85
2023-03-29T06:57:36.580Z,20.44
2023-03-29T06:58:36.546Z,19.99
2023-03-29T06:59:36.482Z,20.91
2023-03-29T07:00:36.412Z,19.72
2023-03-29T07:01:36.389Z,21.30
2023-03-29T07:02:36.296Z,22.21
2023-03-29T07:03:36.254Z,22.66
2023-03-29T07:04:38.048Z,23.26
2023-03-29T07:05:36.126Z,23.27
2023-03-29T07:06:36.079Z,23.29
2023-03-29T07:07:36.026Z,23.24
2023-03-29T07:08:35.993Z,23.76
2023-03-29T07:09:37.998Z,24.35
2023-03-29T07:10:35.925Z,25.13
2023-03-29T07:11:35.891Z,25.72
2023-03-29T07:12:35.851Z,25.44
2023-03-29T07:13:35.788Z,25.39
2023-03-29T07:14:35.756Z,24.75
2023-03-29T07:15:35.732Z,22.84
2023-03-29T07:16:35.748Z,22.77
2023-03-29T07:17:35.656Z,22.95
2023-03-29T07:18:35.632Z,23.67
2023-03-29T07:19:35.553Z,23.82
2023-03-29T07:20:35.503Z,26.20
2023-03-29T07:21:37.862Z,19.79
2023-03-29T07:22:35.508Z,13.57
2023-03-29T07:23:35.480Z,4.91
2023-03-29T07:24:35.515Z,3.72
2023-03-29T07:25:35.462Z,3.63
2023-03-29T07:26:35.436Z,3.56
2023-03-29T07:27:35.421Z,3.57
2023-03-29T07:28:35.429Z,3.38
2023-03-29T07:29:35.433Z,3.61
2023-03-29T07:30:35.445Z,3.61
2023-03-29T07:31:35.454Z,3.78
2023-03-29T07:32:35.549Z,3.76
2023-03-29T07:33:35.502Z,4.18
2023-03-29T07:34:35.417Z,4.53
2023-03-29T07:35:35.417Z,4.03
2023-03-29T07:36:35.970Z,4.27
2023-03-29T07:37:35.345Z,4.30
2023-03-29T07:38:35.317Z,4.27
2023-03-29T07:39:35.293Z,4.51
2023-03-29T07:40:35.265Z,4.51
2023-03-29T07:41:35.235Z,4.94
2023-03-29T07:42:35.195Z,5.18
2023-03-29T07:43:35.156Z,5.30
2023-03-29T07:44:35.122Z,5.02
2023-03-29T07:45:35.114Z,5.21
2023-03-29T07:46:35.033Z,5.49
2023-03-29T07:47:35.027Z,5.43
2023-03-29T07:48:35.021Z,6.18
2023-03-29T07:49:34.986Z,6.43
2023-03-29T07:50:34.862Z,6.59
2023-03-29T07:51:34.805Z,6.43
2023-03-29T07:52:34.773Z,6.72
2023-03-29T07:53:34.738Z,5.98
2023-03-29T07:54:34.649Z,5.58
2023-03-29T07:55:34.600Z,5.99
2023-03-29T07:56:34.576Z,6.23
2023-03-29T07:57:34.498Z,6.91
2023-03-29T07:58:34.458Z,6.85
2023-03-29T07:59:34.420Z,6.88
2023-03-29T08:00:34.476Z,6.72
2023-03-29T08:01:34.291Z,6.29
2023-03-29T08:02:34.363Z,6.89
2023-03-29T08:03:34.206Z,7.31
2023-03-29T08:04:34.337Z,7.28
2023-03-29T08:05:41.147Z,7.35
2023-03-29T08:06:34.995Z,7.38
2023-03-29T08:07:33.929Z,7.39
2023-03-29T08:08:33.869Z,7.49
2023-03-29T08:09:33.792Z,7.61
2023-03-29T08:10:33.745Z,7.55
2023-03-29T08:11:33.680Z,7.64
2023-03-29T08:12:34.483Z,8.67
2023-03-29T08:13:33.614Z,9.05
2023-03-29T08:14:33.472Z,8.20
2023-03-29T08:15:33.423Z,6.60
2023-03-29T08:16:33.427Z,4.71
2023-03-29T08:17:33.347Z,2.31
2023-03-29T08:18:34.837Z,1.78
2023-03-29T08:19:33.218Z,2.00
2023-03-29T08:20:33.164Z,1.39
2023-03-29T08:21:33.132Z,1.47
2023-03-29T08:22:33.119Z,1.72
2023-03-29T08:23:33.108Z,1.96
2023-03-29T08:24:33.121Z,2.44
2023-03-29T08:25:33.129Z,2.89
2023-03-29T08:26:33.930Z,2.63
2023-03-29T08:27:33.165Z,2.46
2023-03-29T08:28:33.175Z,3.04
2023-03-29T08:29:33.990Z,3.66
2023-03-29T08:30:33.193Z,4.22
2023-03-29T08:31:33.154Z,4.76
2023-03-29T08:32:33.127Z,5.38
2023-03-29T08:33:33.075Z,6.15
2023-03-29T08:34:33.038Z,6.57
2023-03-29T08:35:33.057Z,7.10
2023-03-29T08:36:32.951Z,7.67
2023-03-29T08:37:32.963Z,7.96
2023-03-29T08:38:32.842Z,8.72
2023-03-29T08:39:32.815Z,8.98
2023-03-29T08:40:32.776Z,9.67
2023-03-29T08:41:32.738Z,10.50
2023-03-29T08:42:32.721Z,10.83
2023-03-29T08:43:32.693Z,11.63
2023-03-29T08:44:32.643Z,11.99
2023-03-29T08:45:32.628Z,12.67
2023-03-29T08:46:35.351Z,13.38
2023-03-29T08:47:32.599Z,14.38
2023-03-29T08:48:33.518Z,14.90
2023-03-29T08:49:33.000Z,15.52
2023-03-29T08:50:32.412Z,15.74
2023-03-29T08:51:33.359Z,15.79
2023-03-29T08:52:32.348Z,16.07
2023-03-29T08:53:32.290Z,16.58
2023-03-29T08:54:32.184Z,17.82
2023-03-29T08:55:32.120Z,19.82
2023-03-29T08:56:34.133Z,21.03
2023-03-29T08:57:32.008Z,21.89
2023-03-29T08:58:31.946Z,22.31
2023-03-29T08:59:31.883Z,23.76
2023-03-29T09:00:31.878Z,24.81
2023-03-29T09:01:31.957Z,25.46
2023-03-29T09:02:31.940Z,26.91
2023-03-29T09:03:31.966Z,28.17
2023-03-29T09:04:31.834Z,30.32
2023-03-29T09:05:31.820Z,31.65
2023-03-29T09:06:31.819Z,32.38
2023-03-29T09:07:31.794Z,33.69
2023-03-29T09:08:31.794Z,34.41
2023-03-29T09:09:31.778Z,36.06
2023-03-29T09:10:31.755Z,37.04
2023-03-29T09:11:31.739Z,38.73
2023-03-29T09:12:31.730Z,39.17
2023-03-29T09:13:31.802Z,40.32
2023-03-29T09:14:31.677Z,40.88
2023-03-29T09:15:31.652Z,42.24
2023-03-29T09:16:31.719Z,44.04
2023-03-29T09:17:31.663Z,53.95
2023-03-29T09:18:31.622Z,52.94
2023-03-29T09:19:31.584Z,52.43
2023-03-29T09:20:31.553Z,49.43
2023-03-29T09:21:32.022Z,47.22
2023-03-29T09:22:31.529Z,48.34
2023-03-29T09:23:31.504Z,45.65
2023-03-29T09:24:31.507Z,45.69
2023-03-29T09:25:36.247Z,43.99
2023-03-29T09:26:32.481Z,44.12
2023-03-29T09:27:31.368Z,44.17
2023-03-29T09:28:31.290Z,44.19
2023-03-29T09:29:31.249Z,43.73
2023-03-29T09:30:31.179Z,43.90
2023-03-29T09:31:31.160Z,43.48
2023-03-29T09:32:31.083Z,42.98
2023-03-29T09:33:30.995Z,41.70
2023-03-29T09:34:30.967Z,41.58
2023-03-29T09:35:31.015Z,40.65
2023-03-29T09:36:30.940Z,40.28
2023-03-29T09:37:30.934Z,39.98
2023-03-29T09:38:30.923Z,41.00
2023-03-29T09:39:30.911Z,40.45
2023-03-29T09:40:30.878Z,39.80
2023-03-29T09:41:30.843Z,38.67
2023-03-29T09:42:30.782Z,38.80
2023-03-29T09:43:30.731Z,38.00
2023-03-29T09:44:31.692Z,37.60
2023-03-29T09:45:30.680Z,36.63
2023-03-29T09:46:30.594Z,37.47
2023-03-29T09:47:30.543Z,36.97
2023-03-29T09:48:30.509Z,35.86
2023-03-29T09:49:30.522Z,35.72
2023-03-29T09:50:32.262Z,35.59
2023-03-29T09:51:30.333Z,35.21
2023-03-29T09:52:30.292Z,34.32
2023-03-29T09:53:30.246Z,33.66
2023-03-29T09:54:30.199Z,34.11
2023-03-29T09:55:30.169Z,32.92
2023-03-29T09:56:30.117Z,32.32
2023-03-29T09:57:30.157Z,32.77
2023-03-29T09:58:30.023Z,32.78
2023-03-29T09:59:29.987Z,32.59
2023-03-29T10:00:29.929Z,32.04
2023-03-29T10:01:29.906Z,31.49
2023-03-29T10:02:29.865Z,31.26
2023-03-29T10:03:29.883Z,30.72
2023-03-29T10:04:29.807Z,30.82
2023-03-29T10:05:29.720Z,30.49
2023-03-29T10:06:29.675Z,30.71
2023-03-29T10:07:29.658Z,29.65
2023-03-29T10:08:29.622Z,29.14
2023-03-29T10:09:29.555Z,28.94
2023-03-29T10:10:29.511Z,29.07
2023-03-29T10:11:29.501Z,28.74
2023-03-29T10:12:29.436Z,28.04
2023-03-29T10:13:29.411Z,28.74
2023-03-29T10:14:29.364Z,28.10
2023-03-29T10:15:30.367Z,27.41
2023-03-29T10:16:29.351Z,27.09
2023-03-29T10:17:29.294Z,27.08
2023-03-29T10:18:29.243Z,27.29
2023-03-29T10:19:29.206Z,26.98
2023-03-29T10:20:29.963Z,26.32
2023-03-29T10:21:29.116Z,26.65
2023-03-29T10:22:29.096Z,25.77
2023-03-29T10:23:29.056Z,25.07
2023-03-29T10:24:29.042Z,25.50
2023-03-29T10:25:29.016Z,24.28
2023-03-29T10:26:29.030Z,25.16
2023-03-29T10:27:28.977Z,25.32
2023-03-29T10:28:28.909Z,24.33
2023-03-29T10:29:28.881Z,24.04
2023-03-29T10:30:28.841Z,23.63
2023-03-29T10:31:28.855Z,24.00
2023-03-29T10:32:28.884Z,23.36
2023-03-29T10:33:28.751Z,23.66
2023-03-29T10:34:28.770Z,22.38
2023-03-29T10:35:28.691Z,22.91
2023-03-29T10:36:28.652Z,22.58
2023-03-29T10:37:28.633Z,22.18
2023-03-29T10:38:28.604Z,21.62
2023-03-29T10:39:28.576Z,21.66
2023-03-29T10:40:28.542Z,21.71
2023-03-29T10:41:28.516Z,21.21
2023-03-29T10:42:29.056Z,20.88
2023-03-29T10:43:28.465Z,20.85
2023-03-29T10:44:29.768Z,20.34
2023-03-29T10:45:28.514Z,20.48
2023-03-29T10:46:28.541Z,20.13
2023-03-29T10:47:28.453Z,20.10
2023-03-29T10:48:28.421Z,19.67
2023-03-29T10:49:28.392Z,19.46
2023-03-29T10:50:28.367Z,19.19
2023-03-29T10:51:28.325Z,19.41
2023-03-29T10:52:28.311Z,19.25
2023-03-29T10:53:28.272Z,18.72
2023-03-29T10:54:28.238Z,18.83
2023-03-29T10:55:28.214Z,18.31
2023-03-29T10:56:28.183Z,18.18
2023-03-29T10:57:28.240Z,18.36
2023-03-29T10:58:28.177Z,17.92
2023-03-29T10:59:28.097Z,17.65
2023-03-29T11:00:28.083Z,17.49
2023-03-29T11:01:28.093Z,17.73
2023-03-29T11:02:28.165Z,17.11
2023-03-29T11:03:28.179Z,17.36
2023-03-29T11:04:27.976Z,16.90
2023-03-29T11:05:28.015Z,16.72
2023-03-29T11:06:28.569Z,16.68
2023-03-29T11:07:27.984Z,16.40
2023-03-29T11:08:30.420Z,16.50
2023-03-29T11:09:27.817Z,16.74
2023-03-29T11:10:28.061Z,15.98
2023-03-29T11:11:27.703Z,16.03
2023-03-29T11:12:27.689Z,16.08
2023-03-29T11:13:27.589Z,15.63
2023-03-29T11:14:27.510Z,15.55
2023-03-29T11:15:27.442Z,15.66
2023-03-29T11:16:27.394Z,15.07
2023-03-29T11:17:27.355Z,15.07
2023-03-29T11:18:27.319Z,14.88
2023-03-29T11:19:27.177Z,14.65
2023-03-29T11:20:27.135Z,14.48
2023-03-29T11:21:27.043Z,14.37
2023-03-29T11:22:26.976Z,14.16
2023-03-29T11:23:26.911Z,14.22
2023-03-29T11:24:26.861Z,14.25
2023-03-29T11:25:29.548Z,14.35
2023-03-29T11:26:26.728Z,14.29
2023-03-29T11:27:26.653Z,14.22
2023-03-29T11:28:26.596Z,14.01
2023-03-29T11:29:26.543Z,13.76
2023-03-29T11:30:26.494Z,13.72
2023-03-29T11:31:26.474Z,13.50
2023-03-29T11:32:26.378Z,13.38
2023-03-29T11:33:26.312Z,13.33
2023-03-29T11:34:26.263Z,13.33
2023-03-29T11:35:26.263Z,13.25
2023-03-29T11:36:26.138Z,13.15
2023-03-29T11:37:26.095Z,13.05
2023-03-29T11:38:26.048Z,12.95
2023-03-29T11:39:25.961Z,12.92
2023-03-29T11:40:25.902Z,12.84
2023-03-29T11:41:25.846Z,12.61
2023-03-29T11:42:26.494Z,12.65
2023-03-29T11:43:25.712Z,12.32
2023-03-29T11:44:25.661Z,12.56
2023-03-29T11:45:25.598Z,12.31
2023-03-29T11:46:25.568Z,12.24
2023-03-29T11:47:25.528Z,11.89
2023-03-29T11:48:25.452Z,12.20
2023-03-29T11:49:25.373Z,11.91
2023-03-29T11:50:25.309Z,11.83
2023-03-29T11:51:25.257Z,11.66
2023-03-29T11:52:25.188Z,11.71
2023-03-29T11:53:25.156Z,11.67
2023-03-29T11:54:25.108Z,11.52
2023-03-29T11:55:25.043Z,11.52
2023-03-29T11:56:24.988Z,11.44
2023-03-29T11:57:25.085Z,11.34
2023-03-29T11:58:25.185Z,11.30
2023-03-29T11:59:24.837Z,10.97
2023-03-29T12:00:24.790Z,11.15
2023-03-29T12:01:24.743Z,11.22
2023-03-29T12:02:24.847Z,10.92
2023-03-29T12:03:24.763Z,10.79
2023-03-29T12:04:24.898Z,10.81
2023-03-29T12:05:24.544Z,10.70
2023-03-29T12:06:24.495Z,10.81
2023-03-29T12:07:24.467Z,10.57
2023-03-29T12:08:24.411Z,10.53
2023-03-29T12:09:24.442Z,10.58
2023-03-29T12:10:24.327Z,10.35
2023-03-29T12:11:24.286Z,10.51
2023-03-29T12:12:24.232Z,10.24
2023-03-29T12:13:24.204Z,10.37
2023-03-29T12:14:26.069Z,10.27
2023-03-29T12:15:24.126Z,10.27
2023-03-29T12:16:24.137Z,10.02
2023-03-29T12:17:24.090Z,10.22
2023-03-29T12:18:24.044Z,10.04
2023-03-29T12:19:24.001Z,9.81
2023-03-29T12:20:23.969Z,9.72
2023-03-29T12:21:23.940Z,9.79
2023-03-29T12:22:23.911Z,9.72
2023-03-29T12:23:23.880Z,9.64
2023-03-29T12:24:23.854Z,9.35
2023-03-29T12:25:23.906Z,9.40
2023-03-29T12:26:23.760Z,9.27
2023-03-29T12:27:23.724Z,9.32
2023-03-29T12:28:23.694Z,9.15
2023-03-29T12:29:23.658Z,9.32
2023-03-29T12:30:23.640Z,9.08
2023-03-29T12:31:23.633Z,9.09
2023-03-29T12:32:23.637Z,9.29
2023-03-29T12:33:23.498Z,8.87
2023-03-29T12:34:23.452Z,8.77
2023-03-29T12:35:23.411Z,8.57
2023-03-29T12:36:23.375Z,7.97
2023-03-29T12:37:23.356Z,7.78
2023-03-29T12:38:23.315Z,7.70
2023-03-29T12:39:23.270Z,7.56
2023-03-29T12:40:23.217Z,7.35
2023-03-29T12:41:23.204Z,7.26
2023-03-29T12:42:23.225Z,7.21
2023-03-29T12:43:23.124Z,7.09
2023-03-29T12:44:23.094Z,7.14
2023-03-29T12:45:23.057Z,7.24
2023-03-29T12:46:23.113Z,7.22
2023-03-29T12:47:22.982Z,7.27
2023-03-29T12:48:22.934Z,7.32
2023-03-29T12:49:22.882Z,7.30
2023-03-29T12:50:22.845Z,7.30
2023-03-29T12:51:22.802Z,7.08
2023-03-29T12:52:22.774Z,7.23
2023-03-29T12:53:22.744Z,7.15
2023-03-29T12:54:22.675Z,7.21
2023-03-29T12:55:22.638Z,7.27
2023-03-29T12:56:22.603Z,7.18
2023-03-29T12:57:22.630Z,7.02
2023-03-29T12:58:22.646Z,6.95
2023-03-29T12:59:22.494Z,6.99
2023-03-29T13:00:22.470Z,7.06
2023-03-29T13:01:23.215Z,7.05
2023-03-29T13:02:22.429Z,6.86
2023-03-29T13:03:22.403Z,6.97
2023-03-29T13:04:22.286Z,6.90
2023-03-29T13:05:22.388Z,6.89
2023-03-29T13:06:22.288Z,6.74
2023-03-29T13:07:22.308Z,6.83
2023-03-29T13:08:22.311Z,6.89